sensor_id;sensor_type;location;lat;lon;timestamp;P1;durP1;ratioP1;P2;durP2;ratioP2
36593;SDS011;22603;47.900;8.146;2023-01-30T00:02:40;4.00;;;2.37;;
36593;SDS011;22603;47.900;8.146;2023-01-30T00:05:26;7.50;;;1.80;;
36593;SDS011;22603;47.900;8.146;2023-01-30T00:08:14;4.97;;;1.60;;
36593;SDS011;22603;47.900;8.146;2023-01-30T00:11:02;3.33;;;1.77;;
36593;SDS011;22603;47.900;8.146;2023-01-30T00:13:50;2.67;;;1.27;;
36593;SDS011;22603;47.900;8.146;2023-01-30T00:16:37;4.20;;;2.30;;
36593;SDS011;22603;47.900;8.146;2023-01-30T00:19:24;5.63;;;2.07;;
36593;SDS011;22603;47.900;8.146;2023-01-30T00:22:11;4.43;;;2.37;;
36593;SDS011;22603;47.900;8.146;2023-01-30T00:24:59;5.53;;;2.13;;
36593;SDS011;22603;47.900;8.146;2023-01-30T00:27:46;6.10;;;1.07;;
36593;SDS011;22603;47.900;8.146;2023-01-30T00:30:33;10.37;;;2.70;;
36593;SDS011;22603;47.900;8.146;2023-01-30T00:33:20;4.57;;;1.57;;
36593;SDS011;22603;47.900;8.146;2023-01-30T00:36:08;2.77;;;1.37;;
36593;SDS011;22603;47.900;8.146;2023-01-30T00:38:56;2.20;;;1.37;;
36593;SDS011;22603;47.900;8.146;2023-01-30T00:41:44;3.57;;;1.43;;
36593;SDS011;22603;47.900;8.146;2023-01-30T00:44:48;2.57;;;1.07;;
36593;SDS011;22603;47.900;8.146;2023-01-30T00:47:52;2.20;;;1.17;;
36593;SDS011;22603;47.900;8.146;2023-01-30T00:50:39;4.40;;;1.60;;
36593;SDS011;22603;47.900;8.146;2023-01-30T00:53:29;36.27;;;2.73;;
36593;SDS011;22603;47.900;8.146;2023-01-30T00:56:15;5.83;;;1.20;;
36593;SDS011;22603;47.900;8.146;2023-01-30T00:59:03;2.93;;;1.67;;
36593;SDS011;22603;47.900;8.146;2023-01-30T01:01:50;2.77;;;1.43;;
36593;SDS011;22603;47.900;8.146;2023-01-30T01:04:37;1.83;;;1.27;;
36593;SDS011;22603;47.900;8.146;2023-01-30T01:07:27;2.13;;;0.87;;
36593;SDS011;22603;47.900;8.146;2023-01-30T01:10:14;2.47;;;1.23;;
36593;SDS011;22603;47.900;8.146;2023-01-30T01:13:02;8.33;;;2.07;;
36593;SDS011;22603;47.900;8.146;2023-01-30T01:15:52;8.97;;;2.40;;
36593;SDS011;22603;47.900;8.146;2023-01-30T01:18:39;3.63;;;1.60;;
36593;SDS011;22603;47.900;8.146;2023-01-30T01:21:25;4.00;;;2.03;;
36593;SDS011;22603;47.900;8.146;2023-01-30T01:24:13;4.37;;;0.93;;
36593;SDS011;22603;47.900;8.146;2023-01-30T01:27:01;6.80;;;1.67;;
36593;SDS011;22603;47.900;8.146;2023-01-30T01:29:48;3.97;;;1.40;;
36593;SDS011;22603;47.900;8.146;2023-01-30T01:32:36;6.10;;;1.50;;
36593;SDS011;22603;47.900;8.146;2023-01-30T01:35:23;5.17;;;1.80;;
36593;SDS011;22603;47.900;8.146;2023-01-30T01:38:09;3.27;;;1.23;;
36593;SDS011;22603;47.900;8.146;2023-01-30T01:40:56;8.17;;;1.73;;
36593;SDS011;22603;47.900;8.146;2023-01-30T01:43:58;5.57;;;1.80;;
36593;SDS011;22603;47.900;8.146;2023-01-30T01:46:47;2.37;;;1.47;;
36593;SDS011;22603;47.900;8.146;2023-01-30T01:49:39;5.37;;;2.13;;
36593;SDS011;22603;47.900;8.146;2023-01-30T01:52:26;1.60;;;0.73;;
36593;SDS011;22603;47.900;8.146;2023-01-30T01:55:14;2.07;;;1.20;;
36593;SDS011;22603;47.900;8.146;2023-01-30T01:58:02;3.17;;;1.30;;
36593;SDS011;22603;47.900;8.146;2023-01-30T02:00:55;3.27;;;1.57;;
36593;SDS011;22603;47.900;8.146;2023-01-30T02:03:44;2.33;;;1.17;;
36593;SDS011;22603;47.900;8.146;2023-01-30T02:06:37;1.90;;;0.93;;
36593;SDS011;22603;47.900;8.146;2023-01-30T02:09:26;6.50;;;2.07;;
36593;SDS011;22603;47.900;8.146;2023-01-30T02:12:14;2.57;;;1.60;;
36593;SDS011;22603;47.900;8.146;2023-01-30T02:15:01;5.27;;;1.43;;
36593;SDS011;22603;47.900;8.146;2023-01-30T02:17:49;4.23;;;1.83;;
36593;SDS011;22603;47.900;8.146;2023-01-30T02:20:41;3.67;;;2.00;;
36593;SDS011;22603;47.900;8.146;2023-01-30T02:27:21;6.80;;;2.13;;
36593;SDS011;22603;47.900;8.146;2023-01-30T02:30:37;9.17;;;3.37;;
36593;SDS011;22603;47.900;8.146;2023-01-30T02:33:36;4.90;;;2.30;;
36593;SDS011;22603;47.900;8.146;2023-01-30T02:36:30;6.17;;;2.67;;
36593;SDS011;22603;47.900;8.146;2023-01-30T02:39:29;5.97;;;1.97;;
36593;SDS011;22603;47.900;8.146;2023-01-30T02:42:25;7.77;;;3.63;;
36593;SDS011;22603;47.900;8.146;2023-01-30T02:45:21;6.17;;;2.80;;
36593;SDS011;22603;47.900;8.146;2023-01-30T02:48:16;7.17;;;2.57;;
36593;SDS011;22603;47.900;8.146;2023-01-30T02:51:09;8.30;;;1.90;;
36593;SDS011;22603;47.900;8.146;2023-01-30T02:53:59;7.43;;;2.10;;
36593;SDS011;22603;47.900;8.146;2023-01-30T02:56:46;8.43;;;3.33;;
36593;SDS011;22603;47.900;8.146;2023-01-30T02:59:36;6.17;;;2.77;;
36593;SDS011;22603;47.900;8.146;2023-01-30T03:02:46;10.77;;;3.40;;
36593;SDS011;22603;47.900;8.146;2023-01-30T03:05:59;5.40;;;2.13;;
36593;SDS011;22603;47.900;8.146;2023-01-30T03:09:11;5.40;;;2.33;;
36593;SDS011;22603;47.900;8.146;2023-01-30T03:12:06;5.67;;;2.30;;
36593;SDS011;22603;47.900;8.146;2023-01-30T03:14:59;7.07;;;2.83;;
36593;SDS011;22603;47.900;8.146;2023-01-30T03:17:50;8.90;;;3.57;;
36593;SDS011;22603;47.900;8.146;2023-01-30T03:20:38;13.37;;;4.27;;
36593;SDS011;22603;47.900;8.146;2023-01-30T03:23:27;6.20;;;2.30;;
36593;SDS011;22603;47.900;8.146;2023-01-30T03:26:15;6.80;;;2.83;;
36593;SDS011;22603;47.900;8.146;2023-01-30T03:29:05;4.97;;;1.77;;
36593;SDS011;22603;47.900;8.146;2023-01-30T03:31:52;6.73;;;3.10;;
36593;SDS011;22603;47.900;8.146;2023-01-30T03:34:39;8.13;;;3.10;;
36593;SDS011;22603;47.900;8.146;2023-01-30T03:37:26;4.97;;;2.33;;
36593;SDS011;22603;47.900;8.146;2023-01-30T03:40:15;8.23;;;2.53;;
36593;SDS011;22603;47.900;8.146;2023-01-30T03:43:02;8.93;;;3.27;;
36593;SDS011;22603;47.900;8.146;2023-01-30T03:45:49;11.80;;;2.50;;
36593;SDS011;22603;47.900;8.146;2023-01-30T03:48:36;4.20;;;1.73;;
36593;SDS011;22603;47.900;8.146;2023-01-30T03:51:23;5.20;;;2.20;;
36593;SDS011;22603;47.900;8.146;2023-01-30T03:54:10;5.70;;;2.30;;
36593;SDS011;22603;47.900;8.146;2023-01-30T03:56:58;8.77;;;3.27;;
36593;SDS011;22603;47.900;8.146;2023-01-30T03:59:45;2.53;;;1.47;;
36593;SDS011;22603;47.900;8.146;2023-01-30T04:02:32;5.23;;;2.17;;
36593;SDS011;22603;47.900;8.146;2023-01-30T04:05:19;5.73;;;2.47;;
36593;SDS011;22603;47.900;8.146;2023-01-30T04:08:06;7.53;;;2.50;;
36593;SDS011;22603;47.900;8.146;2023-01-30T04:10:53;6.57;;;2.90;;
36593;SDS011;22603;47.900;8.146;2023-01-30T04:13:42;4.17;;;1.90;;
36593;SDS011;22603;47.900;8.146;2023-01-30T04:16:29;4.87;;;1.70;;
36593;SDS011;22603;47.900;8.146;2023-01-30T04:19:15;4.77;;;1.83;;
36593;SDS011;22603;47.900;8.146;2023-01-30T04:22:02;5.37;;;1.70;;
36593;SDS011;22603;47.900;8.146;2023-01-30T04:24:49;4.10;;;1.40;;
36593;SDS011;22603;47.900;8.146;2023-01-30T04:27:37;6.07;;;2.70;;
36593;SDS011;22603;47.900;8.146;2023-01-30T04:30:25;7.47;;;2.60;;
36593;SDS011;22603;47.900;8.146;2023-01-30T04:33:12;4.87;;;2.03;;
36593;SDS011;22603;47.900;8.146;2023-01-30T04:35:58;2.90;;;1.60;;
36593;SDS011;22603;47.900;8.146;2023-01-30T04:38:45;5.37;;;2.17;;
36593;SDS011;22603;47.900;8.146;2023-01-30T04:41:32;4.97;;;2.47;;
36593;SDS011;22603;47.900;8.146;2023-01-30T04:44:19;4.40;;;2.10;;
36593;SDS011;22603;47.900;8.146;2023-01-30T04:47:07;6.33;;;2.50;;
36593;SDS011;22603;47.900;8.146;2023-01-30T04:49:54;6.47;;;2.80;;
36593;SDS011;22603;47.900;8.146;2023-01-30T04:52:41;3.67;;;1.73;;
36593;SDS011;22603;47.900;8.146;2023-01-30T04:55:27;9.57;;;2.37;;
36593;SDS011;22603;47.900;8.146;2023-01-30T04:58:14;7.77;;;2.57;;
36593;SDS011;22603;47.900;8.146;2023-01-30T05:01:13;7.83;;;2.70;;
36593;SDS011;22603;47.900;8.146;2023-01-30T05:04:02;4.63;;;1.80;;
36593;SDS011;22603;47.900;8.146;2023-01-30T05:06:50;5.13;;;2.23;;
36593;SDS011;22603;47.900;8.146;2023-01-30T05:09:37;8.43;;;2.03;;
36593;SDS011;22603;47.900;8.146;2023-01-30T05:12:24;6.43;;;2.27;;
36593;SDS011;22603;47.900;8.146;2023-01-30T05:15:11;8.20;;;2.80;;
36593;SDS011;22603;47.900;8.146;2023-01-30T05:17:59;6.80;;;2.47;;
36593;SDS011;22603;47.900;8.146;2023-01-30T05:20:47;8.60;;;3.03;;
36593;SDS011;22603;47.900;8.146;2023-01-30T05:23:35;9.67;;;3.43;;
36593;SDS011;22603;47.900;8.146;2023-01-30T05:26:22;8.70;;;3.90;;
36593;SDS011;22603;47.900;8.146;2023-01-30T05:29:09;4.73;;;2.13;;
36593;SDS011;22603;47.900;8.146;2023-01-30T05:31:56;6.57;;;3.00;;
36593;SDS011;22603;47.900;8.146;2023-01-30T05:34:43;7.23;;;2.73;;
36593;SDS011;22603;47.900;8.146;2023-01-30T05:37:30;7.80;;;2.77;;
36593;SDS011;22603;47.900;8.146;2023-01-30T05:40:18;5.70;;;2.33;;
36593;SDS011;22603;47.900;8.146;2023-01-30T05:43:05;5.87;;;2.40;;
36593;SDS011;22603;47.900;8.146;2023-01-30T05:45:52;7.70;;;2.83;;
36593;SDS011;22603;47.900;8.146;2023-01-30T05:48:39;7.37;;;3.33;;
36593;SDS011;22603;47.900;8.146;2023-01-30T05:51:26;10.00;;;3.30;;
36593;SDS011;22603;47.900;8.146;2023-01-30T05:54:14;11.60;;;3.47;;
36593;SDS011;22603;47.900;8.146;2023-01-30T05:57:01;10.60;;;3.27;;
36593;SDS011;22603;47.900;8.146;2023-01-30T05:59:48;9.27;;;3.23;;
36593;SDS011;22603;47.900;8.146;2023-01-30T06:02:35;10.80;;;3.70;;
36593;SDS011;22603;47.900;8.146;2023-01-30T06:05:22;9.00;;;2.43;;
36593;SDS011;22603;47.900;8.146;2023-01-30T06:08:09;9.67;;;3.43;;
36593;SDS011;22603;47.900;8.146;2023-01-30T06:10:59;6.07;;;2.73;;
36593;SDS011;22603;47.900;8.146;2023-01-30T06:13:47;6.43;;;4.03;;
36593;SDS011;22603;47.900;8.146;2023-01-30T06:16:36;10.70;;;3.70;;
36593;SDS011;22603;47.900;8.146;2023-01-30T06:19:23;11.60;;;3.33;;
36593;SDS011;22603;47.900;8.146;2023-01-30T06:22:10;6.27;;;3.00;;
36593;SDS011;22603;47.900;8.146;2023-01-30T06:24:57;10.73;;;3.33;;
36593;SDS011;22603;47.900;8.146;2023-01-30T06:27:45;8.33;;;2.63;;
36593;SDS011;22603;47.900;8.146;2023-01-30T06:30:33;9.93;;;3.17;;
36593;SDS011;22603;47.900;8.146;2023-01-30T06:33:20;4.97;;;3.27;;
36593;SDS011;22603;47.900;8.146;2023-01-30T06:36:07;6.23;;;2.47;;
36593;SDS011;22603;47.900;8.146;2023-01-30T06:38:54;12.13;;;4.50;;
36593;SDS011;22603;47.900;8.146;2023-01-30T06:41:41;9.63;;;3.07;;
36593;SDS011;22603;47.900;8.146;2023-01-30T06:44:29;6.47;;;2.63;;
36593;SDS011;22603;47.900;8.146;2023-01-30T06:47:16;5.10;;;2.50;;
36593;SDS011;22603;47.900;8.146;2023-01-30T06:50:03;10.03;;;3.50;;
36593;SDS011;22603;47.900;8.146;2023-01-30T06:52:50;8.40;;;2.80;;
36593;SDS011;22603;47.900;8.146;2023-01-30T06:55:39;6.83;;;2.60;;
36593;SDS011;22603;47.900;8.146;2023-01-30T06:58:26;12.90;;;4.13;;
36593;SDS011;22603;47.900;8.146;2023-01-30T07:01:14;7.40;;;3.00;;
36593;SDS011;22603;47.900;8.146;2023-01-30T07:04:02;9.40;;;4.33;;
36593;SDS011;22603;47.900;8.146;2023-01-30T07:06:50;10.30;;;3.80;;
36593;SDS011;22603;47.900;8.146;2023-01-30T07:09:37;11.13;;;3.97;;
36593;SDS011;22603;47.900;8.146;2023-01-30T07:12:23;10.30;;;4.47;;
36593;SDS011;22603;47.900;8.146;2023-01-30T07:15:11;8.00;;;2.83;;
36593;SDS011;22603;47.900;8.146;2023-01-30T07:17:59;12.60;;;3.80;;
36593;SDS011;22603;47.900;8.146;2023-01-30T07:20:46;18.00;;;5.37;;
36593;SDS011;22603;47.900;8.146;2023-01-30T07:23:34;10.70;;;4.27;;
36593;SDS011;22603;47.900;8.146;2023-01-30T07:26:21;15.57;;;5.23;;
36593;SDS011;22603;47.900;8.146;2023-01-30T07:29:09;12.27;;;3.67;;
36593;SDS011;22603;47.900;8.146;2023-01-30T07:31:56;8.53;;;3.03;;
36593;SDS011;22603;47.900;8.146;2023-01-30T07:34:45;9.27;;;3.37;;
36593;SDS011;22603;47.900;8.146;2023-01-30T07:37:32;8.70;;;3.23;;
36593;SDS011;22603;47.900;8.146;2023-01-30T07:40:19;10.63;;;3.83;;
36593;SDS011;22603;47.900;8.146;2023-01-30T07:43:07;6.13;;;3.03;;
36593;SDS011;22603;47.900;8.146;2023-01-30T07:45:56;9.50;;;3.63;;
36593;SDS011;22603;47.900;8.146;2023-01-30T07:48:45;9.67;;;3.73;;
36593;SDS011;22603;47.900;8.146;2023-01-30T07:51:34;16.23;;;4.53;;
36593;SDS011;22603;47.900;8.146;2023-01-30T07:54:21;13.03;;;4.37;;
36593;SDS011;22603;47.900;8.146;2023-01-30T07:57:08;8.93;;;4.13;;
36593;SDS011;22603;47.900;8.146;2023-01-30T07:59:54;13.17;;;4.33;;
36593;SDS011;22603;47.900;8.146;2023-01-30T08:02:41;11.43;;;3.80;;
36593;SDS011;22603;47.900;8.146;2023-01-30T08:05:29;11.20;;;3.80;;
36593;SDS011;22603;47.900;8.146;2023-01-30T08:08:17;12.07;;;4.63;;
36593;SDS011;22603;47.900;8.146;2023-01-30T08:11:04;10.87;;;4.50;;
36593;SDS011;22603;47.900;8.146;2023-01-30T08:13:51;10.07;;;4.00;;
36593;SDS011;22603;47.900;8.146;2023-01-30T08:16:38;12.77;;;4.70;;
36593;SDS011;22603;47.900;8.146;2023-01-30T08:19:25;17.57;;;6.67;;
36593;SDS011;22603;47.900;8.146;2023-01-30T08:22:12;13.20;;;4.40;;
36593;SDS011;22603;47.900;8.146;2023-01-30T08:25:01;10.37;;;4.20;;
36593;SDS011;22603;47.900;8.146;2023-01-30T08:27:48;12.00;;;3.97;;
36593;SDS011;22603;47.900;8.146;2023-01-30T08:30:35;13.93;;;5.27;;
36593;SDS011;22603;47.900;8.146;2023-01-30T08:33:22;38.93;;;11.80;;
36593;SDS011;22603;47.900;8.146;2023-01-30T08:36:09;16.80;;;5.37;;
36593;SDS011;22603;47.900;8.146;2023-01-30T08:38:56;15.17;;;5.27;;
36593;SDS011;22603;47.900;8.146;2023-01-30T08:41:45;12.07;;;4.20;;
36593;SDS011;22603;47.900;8.146;2023-01-30T08:44:32;16.43;;;5.50;;
36593;SDS011;22603;47.900;8.146;2023-01-30T08:47:19;18.07;;;5.67;;
36593;SDS011;22603;47.900;8.146;2023-01-30T08:50:07;14.53;;;4.87;;
36593;SDS011;22603;47.900;8.146;2023-01-30T08:52:54;8.20;;;3.53;;
36593;SDS011;22603;47.900;8.146;2023-01-30T08:55:42;6.53;;;2.30;;
36593;SDS011;22603;47.900;8.146;2023-01-30T08:58:30;11.60;;;3.63;;
36593;SDS011;22603;47.900;8.146;2023-01-30T09:01:17;8.23;;;3.33;;
36593;SDS011;22603;47.900;8.146;2023-01-30T09:04:04;9.53;;;3.93;;
36593;SDS011;22603;47.900;8.146;2023-01-30T09:06:51;8.07;;;2.50;;
36593;SDS011;22603;47.900;8.146;2023-01-30T09:09:38;7.37;;;2.47;;
36593;SDS011;22603;47.900;8.146;2023-01-30T09:12:25;7.07;;;2.43;;
36593;SDS011;22603;47.900;8.146;2023-01-30T09:15:14;6.57;;;2.17;;
36593;SDS011;22603;47.900;8.146;2023-01-30T09:18:01;5.77;;;1.97;;
36593;SDS011;22603;47.900;8.146;2023-01-30T09:20:49;3.77;;;1.50;;
36593;SDS011;22603;47.900;8.146;2023-01-30T09:23:37;3.10;;;1.40;;
36593;SDS011;22603;47.900;8.146;2023-01-30T09:26:24;6.47;;;1.90;;
36593;SDS011;22603;47.900;8.146;2023-01-30T09:29:11;3.87;;;1.40;;
36593;SDS011;22603;47.900;8.146;2023-01-30T09:32:00;3.10;;;1.47;;
36593;SDS011;22603;47.900;8.146;2023-01-30T09:34:47;1.83;;;0.97;;
36593;SDS011;22603;47.900;8.146;2023-01-30T09:37:34;2.57;;;0.90;;
36593;SDS011;22603;47.900;8.146;2023-01-30T09:40:21;2.30;;;0.90;;
36593;SDS011;22603;47.900;8.146;2023-01-30T09:43:20;1.23;;;0.63;;
36593;SDS011;22603;47.900;8.146;2023-01-30T09:46:21;2.53;;;1.00;;
36593;SDS011;22603;47.900;8.146;2023-01-30T09:49:21;2.27;;;1.00;;
36593;SDS011;22603;47.900;8.146;2023-01-30T09:52:21;0.63;;;0.57;;
36593;SDS011;22603;47.900;8.146;2023-01-30T09:55:15;1.80;;;0.80;;
36593;SDS011;22603;47.900;8.146;2023-01-30T09:58:04;0.90;;;0.53;;
36593;SDS011;22603;47.900;8.146;2023-01-30T10:01:03;1.93;;;0.63;;
36593;SDS011;22603;47.900;8.146;2023-01-30T10:04:10;1.23;;;0.43;;
36593;SDS011;22603;47.900;8.146;2023-01-30T10:07:03;0.57;;;0.50;;
36593;SDS011;22603;47.900;8.146;2023-01-30T10:09:58;0.73;;;0.40;;
36593;SDS011;22603;47.900;8.146;2023-01-30T10:12:57;2.00;;;0.90;;
36593;SDS011;22603;47.900;8.146;2023-01-30T10:15:55;2.53;;;1.00;;
36593;SDS011;22603;47.900;8.146;2023-01-30T10:19:01;3.23;;;1.00;;
36593;SDS011;22603;47.900;8.146;2023-01-30T10:22:23;1.97;;;0.87;;
36593;SDS011;22603;47.900;8.146;2023-01-30T10:25:25;3.17;;;1.40;;
36593;SDS011;22603;47.900;8.146;2023-01-30T10:28:17;3.07;;;1.20;;
36593;SDS011;22603;47.900;8.146;2023-01-30T10:31:10;5.53;;;1.70;;
36593;SDS011;22603;47.900;8.146;2023-01-30T10:34:00;6.63;;;2.20;;
36593;SDS011;22603;47.900;8.146;2023-01-30T10:36:51;5.63;;;1.70;;
36593;SDS011;22603;47.900;8.146;2023-01-30T10:39:45;5.60;;;2.03;;
36593;SDS011;22603;47.900;8.146;2023-01-30T10:42:42;5.23;;;1.60;;
36593;SDS011;22603;47.900;8.146;2023-01-30T10:45:37;4.23;;;1.50;;
36593;SDS011;22603;47.900;8.146;2023-01-30T10:48:40;5.70;;;1.87;;
36593;SDS011;22603;47.900;8.146;2023-01-30T10:51:42;5.87;;;1.63;;
36593;SDS011;22603;47.900;8.146;2023-01-30T10:54:34;3.77;;;1.30;;
36593;SDS011;22603;47.900;8.146;2023-01-30T10:57:26;3.37;;;1.30;;
36593;SDS011;22603;47.900;8.146;2023-01-30T11:00:25;2.37;;;1.27;;
36593;SDS011;22603;47.900;8.146;2023-01-30T11:03:17;4.40;;;1.50;;
36593;SDS011;22603;47.900;8.146;2023-01-30T11:06:10;4.00;;;1.60;;
36593;SDS011;22603;47.900;8.146;2023-01-30T11:09:00;3.27;;;1.23;;
36593;SDS011;22603;47.900;8.146;2023-01-30T11:11:48;4.33;;;1.60;;
36593;SDS011;22603;47.900;8.146;2023-01-30T11:14:55;6.57;;;1.90;;
36593;SDS011;22603;47.900;8.146;2023-01-30T11:17:43;3.60;;;1.37;;
36593;SDS011;22603;47.900;8.146;2023-01-30T11:20:30;6.43;;;1.73;;
36593;SDS011;22603;47.900;8.146;2023-01-30T11:23:25;6.23;;;2.00;;
36593;SDS011;22603;47.900;8.146;2023-01-30T11:26:19;6.17;;;2.23;;
36593;SDS011;22603;47.900;8.146;2023-01-30T11:29:23;2.87;;;1.10;;
36593;SDS011;22603;47.900;8.146;2023-01-30T11:32:13;3.43;;;1.53;;
36593;SDS011;22603;47.900;8.146;2023-01-30T11:35:16;3.20;;;1.20;;
36593;SDS011;22603;47.900;8.146;2023-01-30T11:38:10;11.03;;;1.80;;
36593;SDS011;22603;47.900;8.146;2023-01-30T11:41:10;5.40;;;2.23;;
36593;SDS011;22603;47.900;8.146;2023-01-30T11:44:03;6.23;;;2.30;;
36593;SDS011;22603;47.900;8.146;2023-01-30T11:46:51;5.20;;;1.23;;
36593;SDS011;22603;47.900;8.146;2023-01-30T11:49:40;5.90;;;2.27;;
36593;SDS011;22603;47.900;8.146;2023-01-30T11:52:50;4.63;;;1.77;;
36593;SDS011;22603;47.900;8.146;2023-01-30T11:55:38;5.50;;;2.07;;
36593;SDS011;22603;47.900;8.146;2023-01-30T11:58:33;5.07;;;1.90;;
36593;SDS011;22603;47.900;8.146;2023-01-30T12:01:26;7.43;;;2.30;;
36593;SDS011;22603;47.900;8.146;2023-01-30T12:04:14;5.57;;;1.97;;
36593;SDS011;22603;47.900;8.146;2023-01-30T12:07:07;4.57;;;1.83;;
36593;SDS011;22603;47.900;8.146;2023-01-30T12:10:03;5.47;;;1.80;;
36593;SDS011;22603;47.900;8.146;2023-01-30T12:13:15;3.50;;;1.60;;
36593;SDS011;22603;47.900;8.146;2023-01-30T12:16:13;11.13;;;2.30;;
36593;SDS011;22603;47.900;8.146;2023-01-30T12:19:05;3.87;;;1.37;;
36593;SDS011;22603;47.900;8.146;2023-01-30T12:22:09;5.30;;;1.80;;
36593;SDS011;22603;47.900;8.146;2023-01-30T12:25:07;5.27;;;2.10;;
36593;SDS011;22603;47.900;8.146;2023-01-30T12:27:59;5.30;;;1.83;;
36593;SDS011;22603;47.900;8.146;2023-01-30T12:30:50;7.17;;;2.33;;
36593;SDS011;22603;47.900;8.146;2023-01-30T12:33:41;7.67;;;2.40;;
36593;SDS011;22603;47.900;8.146;2023-01-30T12:36:30;7.40;;;2.40;;
36593;SDS011;22603;47.900;8.146;2023-01-30T12:39:31;7.00;;;2.20;;
36593;SDS011;22603;47.900;8.146;2023-01-30T12:42:31;6.80;;;2.33;;
36593;SDS011;22603;47.900;8.146;2023-01-30T12:45:33;5.83;;;2.23;;
36593;SDS011;22603;47.900;8.146;2023-01-30T12:51:52;5.37;;;2.20;;
36593;SDS011;22603;47.900;8.146;2023-01-30T12:54:53;6.53;;;2.40;;
36593;SDS011;22603;47.900;8.146;2023-01-30T12:57:49;5.20;;;1.87;;
36593;SDS011;22603;47.900;8.146;2023-01-30T13:00:47;8.97;;;2.47;;
36593;SDS011;22603;47.900;8.146;2023-01-30T13:03:48;7.23;;;2.63;;
36593;SDS011;22603;47.900;8.146;2023-01-30T13:06:46;2.63;;;1.23;;
36593;SDS011;22603;47.900;8.146;2023-01-30T13:15:59;7.63;;;2.40;;
36593;SDS011;22603;47.900;8.146;2023-01-30T13:18:56;5.53;;;2.23;;
36593;SDS011;22603;47.900;8.146;2023-01-30T13:21:48;6.83;;;2.37;;
36593;SDS011;22603;47.900;8.146;2023-01-30T13:24:47;5.63;;;2.20;;
36593;SDS011;22603;47.900;8.146;2023-01-30T13:27:42;4.97;;;2.00;;
36593;SDS011;22603;47.900;8.146;2023-01-30T13:30:39;5.20;;;1.83;;
36593;SDS011;22603;47.900;8.146;2023-01-30T13:33:31;4.40;;;1.57;;
36593;SDS011;22603;47.900;8.146;2023-01-30T13:36:41;3.33;;;1.43;;
36593;SDS011;22603;47.900;8.146;2023-01-30T13:40:14;5.30;;;1.77;;
36593;SDS011;22603;47.900;8.146;2023-01-30T13:43:52;2.17;;;1.00;;
36593;SDS011;22603;47.900;8.146;2023-01-30T13:47:17;4.77;;;1.37;;
36593;SDS011;22603;47.900;8.146;2023-01-30T14:02:18;5.40;;;1.40;;
36593;SDS011;22603;47.900;8.146;2023-01-30T14:06:13;3.33;;;1.57;;
36593;SDS011;22603;47.900;8.146;2023-01-30T14:09:20;2.80;;;0.97;;
36593;SDS011;22603;47.900;8.146;2023-01-30T14:12:19;2.47;;;1.30;;
36593;SDS011;22603;47.900;8.146;2023-01-30T14:15:22;4.03;;;1.20;;
36593;SDS011;22603;47.900;8.146;2023-01-30T14:18:18;3.37;;;1.17;;
36593;SDS011;22603;47.900;8.146;2023-01-30T14:21:12;2.30;;;1.10;;
36593;SDS011;22603;47.900;8.146;2023-01-30T14:24:05;3.90;;;1.43;;
36593;SDS011;22603;47.900;8.146;2023-01-30T14:27:00;1.93;;;1.10;;
36593;SDS011;22603;47.900;8.146;2023-01-30T14:34:00;2.03;;;0.80;;
36593;SDS011;22603;47.900;8.146;2023-01-30T14:36:47;4.53;;;1.27;;
36593;SDS011;22603;47.900;8.146;2023-01-30T14:39:37;2.40;;;0.80;;
36593;SDS011;22603;47.900;8.146;2023-01-30T14:42:25;9.57;;;0.80;;
36593;SDS011;22603;47.900;8.146;2023-01-30T14:45:14;2.43;;;0.90;;
36593;SDS011;22603;47.900;8.146;2023-01-30T14:51:23;2.00;;;0.80;;
36593;SDS011;22603;47.900;8.146;2023-01-30T14:54:18;1.97;;;1.00;;
36593;SDS011;22603;47.900;8.146;2023-01-30T14:57:24;0.93;;;0.70;;
36593;SDS011;22603;47.900;8.146;2023-01-30T15:00:17;2.30;;;1.07;;
36593;SDS011;22603;47.900;8.146;2023-01-30T15:03:06;2.40;;;1.33;;
36593;SDS011;22603;47.900;8.146;2023-01-30T15:06:03;3.67;;;1.00;;
36593;SDS011;22603;47.900;8.146;2023-01-30T15:08:52;1.47;;;0.90;;
36593;SDS011;22603;47.900;8.146;2023-01-30T15:11:39;3.57;;;1.07;;
36593;SDS011;22603;47.900;8.146;2023-01-30T15:14:30;1.50;;;0.80;;
36593;SDS011;22603;47.900;8.146;2023-01-30T15:17:27;1.73;;;0.87;;
36593;SDS011;22603;47.900;8.146;2023-01-30T15:20:31;2.67;;;1.00;;
36593;SDS011;22603;47.900;8.146;2023-01-30T15:23:41;2.93;;;1.00;;
36593;SDS011;22603;47.900;8.146;2023-01-30T15:30:54;4.63;;;0.90;;
36593;SDS011;22603;47.900;8.146;2023-01-30T15:33:51;1.00;;;0.70;;
36593;SDS011;22603;47.900;8.146;2023-01-30T15:36:46;3.03;;;1.40;;
36593;SDS011;22603;47.900;8.146;2023-01-30T15:39:46;1.97;;;0.80;;
36593;SDS011;22603;47.900;8.146;2023-01-30T15:42:43;1.37;;;0.73;;
36593;SDS011;22603;47.900;8.146;2023-01-30T15:45:38;1.17;;;0.60;;
36593;SDS011;22603;47.900;8.146;2023-01-30T15:49:03;1.23;;;0.70;;
36593;SDS011;22603;47.900;8.146;2023-01-30T15:52:11;0.77;;;0.77;;
36593;SDS011;22603;47.900;8.146;2023-01-30T15:55:14;1.17;;;0.80;;
36593;SDS011;22603;47.900;8.146;2023-01-30T15:58:18;2.87;;;1.20;;
36593;SDS011;22603;47.900;8.146;2023-01-30T16:01:16;2.00;;;0.77;;
36593;SDS011;22603;47.900;8.146;2023-01-30T16:09:05;1.07;;;0.60;;
36593;SDS011;22603;47.900;8.146;2023-01-30T16:13:30;1.13;;;0.83;;
36593;SDS011;22603;47.900;8.146;2023-01-30T16:16:20;3.73;;;1.30;;
36593;SDS011;22603;47.900;8.146;2023-01-30T16:19:24;2.37;;;1.17;;
36593;SDS011;22603;47.900;8.146;2023-01-30T16:31:52;3.67;;;1.50;;
36593;SDS011;22603;47.900;8.146;2023-01-30T16:34:47;3.57;;;1.30;;
36593;SDS011;22603;47.900;8.146;2023-01-30T16:42:19;3.60;;;1.43;;
36593;SDS011;22603;47.900;8.146;2023-01-30T16:49:51;2.47;;;1.20;;
36593;SDS011;22603;47.900;8.146;2023-01-30T16:52:44;3.93;;;1.57;;
36593;SDS011;22603;47.900;8.146;2023-01-30T16:55:57;7.20;;;1.57;;
36593;SDS011;22603;47.900;8.146;2023-01-30T16:59:11;4.53;;;1.50;;
36593;SDS011;22603;47.900;8.146;2023-01-30T17:02:27;3.53;;;1.37;;
36593;SDS011;22603;47.900;8.146;2023-01-30T17:13:49;2.70;;;1.10;;
36593;SDS011;22603;47.900;8.146;2023-01-30T17:17:00;2.47;;;1.03;;
36593;SDS011;22603;47.900;8.146;2023-01-30T17:20:01;3.17;;;1.40;;
36593;SDS011;22603;47.900;8.146;2023-01-30T17:22:51;5.13;;;1.50;;
36593;SDS011;22603;47.900;8.146;2023-01-30T17:25:55;3.40;;;1.40;;
36593;SDS011;22603;47.900;8.146;2023-01-30T17:28:42;5.60;;;1.87;;
36593;SDS011;22603;47.900;8.146;2023-01-30T17:31:29;6.73;;;1.70;;
36593;SDS011;22603;47.900;8.146;2023-01-30T17:34:16;2.87;;;1.27;;
36593;SDS011;22603;47.900;8.146;2023-01-30T17:37:03;3.63;;;1.27;;
36593;SDS011;22603;47.900;8.146;2023-01-30T17:39:51;5.77;;;1.90;;
36593;SDS011;22603;47.900;8.146;2023-01-30T17:42:39;3.23;;;1.07;;
36593;SDS011;22603;47.900;8.146;2023-01-30T17:45:26;4.10;;;1.47;;
36593;SDS011;22603;47.900;8.146;2023-01-30T17:48:13;2.80;;;1.33;;
36593;SDS011;22603;47.900;8.146;2023-01-30T17:51:00;4.70;;;1.50;;
36593;SDS011;22603;47.900;8.146;2023-01-30T17:53:47;3.90;;;1.30;;
36593;SDS011;22603;47.900;8.146;2023-01-30T17:56:34;4.07;;;1.17;;
36593;SDS011;22603;47.900;8.146;2023-01-30T17:59:24;3.13;;;1.37;;
36593;SDS011;22603;47.900;8.146;2023-01-30T18:02:11;2.37;;;1.40;;
36593;SDS011;22603;47.900;8.146;2023-01-30T18:04:58;5.80;;;1.80;;
36593;SDS011;22603;47.900;8.146;2023-01-30T18:07:45;3.87;;;1.47;;
36593;SDS011;22603;47.900;8.146;2023-01-30T18:10:32;5.83;;;1.80;;
36593;SDS011;22603;47.900;8.146;2023-01-30T18:13:20;5.20;;;1.67;;
36593;SDS011;22603;47.900;8.146;2023-01-30T18:16:25;5.27;;;2.17;;
36593;SDS011;22603;47.900;8.146;2023-01-30T18:19:17;4.07;;;1.33;;
36593;SDS011;22603;47.900;8.146;2023-01-30T18:22:10;3.93;;;1.60;;
36593;SDS011;22603;47.900;8.146;2023-01-30T18:24:59;3.50;;;1.40;;
36593;SDS011;22603;47.900;8.146;2023-01-30T18:27:48;3.47;;;1.30;;